sensor_id;sensor_type;location;lat;lon;timestamp;temperature;humidity
15156;DHT22;7678;50.058;8.306;2022-11-25T00:01:33;4.30;99.90
15156;DHT22;7678;50.058;8.306;2022-11-25T00:04:17;4.50;99.90
15156;DHT22;7678;50.058;8.306;2022-11-25T00:06:45;4.60;99.90
15156;DHT22;7678;50.058;8.306;2022-11-25T00:09:13;4.70;99.90
15156;DHT22;7678;50.058;8.306;2022-11-25T00:11:41;4.80;99.90
15156;DHT22;7678;50.058;8.306;2022-11-25T00:14:12;4.70;99.90
15156;DHT22;7678;50.058;8.306;2022-11-25T00:16:40;4.70;99.90
15156;DHT22;7678;50.058;8.306;2022-11-25T00:19:15;4.80;99.90
15156;DHT22;7678;50.058;8.306;2022-11-25T00:21:44;4.70;99.90
15156;DHT22;7678;50.058;8.306;2022-11-25T00:24:14;4.60;99.90
15156;DHT22;7678;50.058;8.306;2022-11-25T00:26:42;4.70;99.90
15156;DHT22;7678;50.058;8.306;2022-11-25T00:29:10;4.70;99.90
15156;DHT22;7678;50.058;8.306;2022-11-25T00:31:40;4.70;99.90
15156;DHT22;7678;50.058;8.306;2022-11-25T00:34:11;4.70;99.90
15156;DHT22;7678;50.058;8.306;2022-11-25T00:36:41;4.90;99.90
15156;DHT22;7678;50.058;8.306;2022-11-25T00:39:11;5.00;99.90
15156;DHT22;7678;50.058;8.306;2022-11-25T00:41:40;5.00;99.90
15156;DHT22;7678;50.058;8.306;2022-11-25T00:44:26;5.00;99.90
15156;DHT22;7678;50.058;8.306;2022-11-25T00:47:07;5.10;99.90
15156;DHT22;7678;50.058;8.306;2022-11-25T00:49:36;5.00;99.90
15156;DHT22;7678;50.058;8.306;2022-11-25T00:52:07;5.10;99.90
15156;DHT22;7678;50.058;8.306;2022-11-25T00:54:35;5.20;99.90
15156;DHT22;7678;50.058;8.306;2022-11-25T00:57:03;5.30;99.90
15156;DHT22;7678;50.058;8.306;2022-11-25T00:59:31;5.40;99.90
15156;DHT22;7678;50.058;8.306;2022-11-25T01:02:00;5.40;99.90
15156;DHT22;7678;50.058;8.306;2022-11-25T01:04:39;5.40;99.90
15156;DHT22;7678;50.058;8.306;2022-11-25T01:07:13;5.40;99.90
15156;DHT22;7678;50.058;8.306;2022-11-25T01:09:43;5.30;99.90
15156;DHT22;7678;50.058;8.306;2022-11-25T01:12:11;5.30;99.90
15156;DHT22;7678;50.058;8.306;2022-11-25T01:14:39;5.40;99.90
15156;DHT22;7678;50.058;8.306;2022-11-25T01:17:08;5.40;99.90
15156;DHT22;7678;50.058;8.306;2022-11-25T01:19:40;5.40;99.90
15156;DHT22;7678;50.058;8.306;2022-11-25T01:22:08;5.40;99.90
15156;DHT22;7678;50.058;8.306;2022-11-25T01:24:37;5.30;99.90
15156;DHT22;7678;50.058;8.306;2022-11-25T01:27:05;5.40;99.90
15156;DHT22;7678;50.058;8.306;2022-11-25T01:29:33;5.50;99.90
15156;DHT22;7678;50.058;8.306;2022-11-25T01:32:08;5.50;99.90
15156;DHT22;7678;50.058;8.306;2022-11-25T01:34:43;5.40;99.90
15156;DHT22;7678;50.058;8.306;2022-11-25T01:37:11;5.40;99.90
15156;DHT22;7678;50.058;8.306;2022-11-25T01:39:40;5.50;99.90
15156;DHT22;7678;50.058;8.306;2022-11-25T01:42:08;5.50;99.90
15156;DHT22;7678;50.058;8.306;2022-11-25T01:44:39;5.50;99.90
15156;DHT22;7678;50.058;8.306;2022-11-25T01:47:26;5.50;99.90
15156;DHT22;7678;50.058;8.306;2022-11-25T01:49:59;5.30;99.90
15156;DHT22;7678;50.058;8.306;2022-11-25T01:52:33;5.30;99.90
15156;DHT22;7678;50.058;8.306;2022-11-25T01:55:08;5.20;99.90
15156;DHT22;7678;50.058;8.306;2022-11-25T01:57:43;5.10;99.90
15156;DHT22;7678;50.058;8.306;2022-11-25T02:00:16;5.10;99.90
15156;DHT22;7678;50.058;8.306;2022-11-25T02:02:44;5.00;99.90
15156;DHT22;7678;50.058;8.306;2022-11-25T02:05:17;5.00;99.90
15156;DHT22;7678;50.058;8.306;2022-11-25T02:07:48;5.10;99.90
15156;DHT22;7678;50.058;8.306;2022-11-25T02:10:21;5.00;99.90
15156;DHT22;7678;50.058;8.306;2022-11-25T02:12:51;5.10;99.90
15156;DHT22;7678;50.058;8.306;2022-11-25T02:15:20;5.00;99.90
15156;DHT22;7678;50.058;8.306;2022-11-25T02:17:48;4.90;99.90
15156;DHT22;7678;50.058;8.306;2022-11-25T02:20:17;4.80;99.90
15156;DHT22;7678;50.058;8.306;2022-11-25T02:22:55;4.70;99.90
15156;DHT22;7678;50.058;8.306;2022-11-25T02:25:28;4.70;99.90
15156;DHT22;7678;50.058;8.306;2022-11-25T02:28:00;4.70;99.90
15156;DHT22;7678;50.058;8.306;2022-11-25T02:30:29;4.60;99.90
15156;DHT22;7678;50.058;8.306;2022-11-25T02:32:58;4.70;99.90
15156;DHT22;7678;50.058;8.306;2022-11-25T02:35:32;4.60;99.90
15156;DHT22;7678;50.058;8.306;2022-11-25T02:38:07;4.70;99.90
15156;DHT22;7678;50.058;8.306;2022-11-25T02:40:43;4.70;99.90
15156;DHT22;7678;50.058;8.306;2022-11-25T02:43:13;4.60;99.90
15156;DHT22;7678;50.058;8.306;2022-11-25T02:45:47;4.40;99.90
15156;DHT22;7678;50.058;8.306;2022-11-25T02:48:16;4.40;99.90
15156;DHT22;7678;50.058;8.306;2022-11-25T02:50:44;4.50;99.90
15156;DHT22;7678;50.058;8.306;2022-11-25T02:53:13;4.50;99.90
15156;DHT22;7678;50.058;8.306;2022-11-25T02:55:43;4.50;99.90
15156;DHT22;7678;50.058;8.306;2022-11-25T02:58:12;4.50;99.90
15156;DHT22;7678;50.058;8.306;2022-11-25T03:00:42;4.50;99.90
15156;DHT22;7678;50.058;8.306;2022-11-25T03:03:14;4.40;99.90
15156;DHT22;7678;50.058;8.306;2022-11-25T03:05:42;4.50;99.90
15156;DHT22;7678;50.058;8.306;2022-11-25T03:08:10;4.60;99.90
15156;DHT22;7678;50.058;8.306;2022-11-25T03:10:39;4.60;99.90
15156;DHT22;7678;50.058;8.306;2022-11-25T03:13:09;4.60;99.90
15156;DHT22;7678;50.058;8.306;2022-11-25T03:15:39;4.50;99.90
15156;DHT22;7678;50.058;8.306;2022-11-25T03:18:07;4.50;99.90
15156;DHT22;7678;50.058;8.306;2022-11-25T03:20:35;4.50;99.90
15156;DHT22;7678;50.058;8.306;2022-11-25T03:23:04;4.60;99.90
15156;DHT22;7678;50.058;8.306;2022-11-25T03:25:34;4.70;99.90
15156;DHT22;7678;50.058;8.306;2022-11-25T03:28:02;4.70;99.90
15156;DHT22;7678;50.058;8.306;2022-11-25T03:30:31;4.70;99.90
15156;DHT22;7678;50.058;8.306;2022-11-25T03:32:59;4.70;99.90
15156;DHT22;7678;50.058;8.306;2022-11-25T03:35:28;4.70;99.90
15156;DHT22;7678;50.058;8.306;2022-11-25T03:37:56;4.70;99.90
15156;DHT22;7678;50.058;8.306;2022-11-25T03:40:24;4.70;99.90
15156;DHT22;7678;50.058;8.306;2022-11-25T03:42:52;4.80;99.90
15156;DHT22;7678;50.058;8.306;2022-11-25T03:45:20;4.90;99.90
15156;DHT22;7678;50.058;8.306;2022-11-25T03:47:50;5.00;99.90
15156;DHT22;7678;50.058;8.306;2022-11-25T03:50:18;4.90;99.90
15156;DHT22;7678;50.058;8.306;2022-11-25T03:52:46;5.00;99.90
15156;DHT22;7678;50.058;8.306;2022-11-25T03:55:14;5.00;99.90
15156;DHT22;7678;50.058;8.306;2022-11-25T03:57:42;5.00;99.90
15156;DHT22;7678;50.058;8.306;2022-11-25T04:00:11;5.00;99.90
15156;DHT22;7678;50.058;8.306;2022-11-25T04:02:39;4.90;99.90
15156;DHT22;7678;50.058;8.306;2022-11-25T04:05:11;4.90;99.90
15156;DHT22;7678;50.058;8.306;2022-11-25T04:07:39;4.90;99.90
15156;DHT22;7678;50.058;8.306;2022-11-25T04:10:10;4.90;99.90
15156;DHT22;7678;50.058;8.306;2022-11-25T04:12:38;4.80;99.90
15156;DHT22;7678;50.058;8.306;2022-11-25T04:15:15;4.90;99.90
15156;DHT22;7678;50.058;8.306;2022-11-25T04:17:43;4.90;99.90
15156;DHT22;7678;50.058;8.306;2022-11-25T04:20:13;4.90;99.90
15156;DHT22;7678;50.058;8.306;2022-11-25T04:22:42;4.90;99.90
15156;DHT22;7678;50.058;8.306;2022-11-25T04:25:10;5.00;99.90
15156;DHT22;7678;50.058;8.306;2022-11-25T04:27:38;4.90;99.90
15156;DHT22;7678;50.058;8.306;2022-11-25T04:30:07;5.00;99.90
15156;DHT22;7678;50.058;8.306;2022-11-25T04:32:36;5.00;99.90
15156;DHT22;7678;50.058;8.306;2022-11-25T04:35:04;4.90;99.90
15156;DHT22;7678;50.058;8.306;2022-11-25T04:37:34;5.00;99.90
15156;DHT22;7678;50.058;8.306;2022-11-25T04:40:03;5.00;99.90
15156;DHT22;7678;50.058;8.306;2022-11-25T04:42:38;5.10;99.90
15156;DHT22;7678;50.058;8.306;2022-11-25T04:45:08;5.00;99.90
15156;DHT22;7678;50.058;8.306;2022-11-25T04:47:52;5.10;99.90
15156;DHT22;7678;50.058;8.306;2022-11-25T04:50:21;5.00;99.90
15156;DHT22;7678;50.058;8.306;2022-11-25T04:52:51;5.00;99.90
15156;DHT22;7678;50.058;8.306;2022-11-25T04:55:19;4.90;99.90
15156;DHT22;7678;50.058;8.306;2022-11-25T04:57:48;4.90;99.90
15156;DHT22;7678;50.058;8.306;2022-11-25T05:00:17;4.80;99.90
15156;DHT22;7678;50.058;8.306;2022-11-25T05:02:44;4.90;99.90
15156;DHT22;7678;50.058;8.306;2022-11-25T05:05:12;4.90;99.90
15156;DHT22;7678;50.058;8.306;2022-11-25T05:07:40;5.10;99.90
15156;DHT22;7678;50.058;8.306;2022-11-25T05:10:10;5.20;99.90
15156;DHT22;7678;50.058;8.306;2022-11-25T05:12:38;5.20;99.90
15156;DHT22;7678;50.058;8.306;2022-11-25T05:15:08;5.20;99.90
15156;DHT22;7678;50.058;8.306;2022-11-25T05:17:36;5.20;99.90
15156;DHT22;7678;50.058;8.306;2022-11-25T05:20:06;5.10;99.90
15156;DHT22;7678;50.058;8.306;2022-11-25T05:22:35;5.00;99.90
15156;DHT22;7678;50.058;8.306;2022-11-25T05:25:03;5.00;99.90
15156;DHT22;7678;50.058;8.306;2022-11-25T05:27:33;5.20;99.90
15156;DHT22;7678;50.058;8.306;2022-11-25T05:30:01;5.20;99.90
15156;DHT22;7678;50.058;8.306;2022-11-25T05:32:30;5.10;99.90
15156;DHT22;7678;50.058;8.306;2022-11-25T05:34:58;5.10;99.90
15156;DHT22;7678;50.058;8.306;2022-11-25T05:37:26;5.20;99.90
15156;DHT22;7678;50.058;8.306;2022-11-25T05:39:54;5.10;99.90
15156;DHT22;7678;50.058;8.306;2022-11-25T05:42:22;5.20;99.90
15156;DHT22;7678;50.058;8.306;2022-11-25T05:44:51;5.20;99.90
15156;DHT22;7678;50.058;8.306;2022-11-25T05:47:19;5.30;99.90
15156;DHT22;7678;50.058;8.306;2022-11-25T05:49:47;5.30;99.90
15156;DHT22;7678;50.058;8.306;2022-11-25T05:52:15;5.30;99.90
15156;DHT22;7678;50.058;8.306;2022-11-25T05:54:43;5.40;99.90
15156;DHT22;7678;50.058;8.306;2022-11-25T05:57:11;5.40;99.90
15156;DHT22;7678;50.058;8.306;2022-11-25T05:59:40;5.40;99.90
15156;DHT22;7678;50.058;8.306;2022-11-25T06:02:10;5.60;99.90
15156;DHT22;7678;50.058;8.306;2022-11-25T06:04:38;5.60;99.90
15156;DHT22;7678;50.058;8.306;2022-11-25T06:07:09;5.50;99.90
15156;DHT22;7678;50.058;8.306;2022-11-25T06:09:37;5.50;99.90
15156;DHT22;7678;50.058;8.306;2022-11-25T06:12:06;5.40;99.90
15156;DHT22;7678;50.058;8.306;2022-11-25T06:14:34;5.50;99.90
15156;DHT22;7678;50.058;8.306;2022-11-25T06:17:02;5.50;99.90
15156;DHT22;7678;50.058;8.306;2022-11-25T06:19:32;5.60;99.90
15156;DHT22;7678;50.058;8.306;2022-11-25T06:22:00;5.50;99.90
15156;DHT22;7678;50.058;8.306;2022-11-25T06:24:28;5.60;99.90
15156;DHT22;7678;50.058;8.306;2022-11-25T06:26:56;5.60;99.90
15156;DHT22;7678;50.058;8.306;2022-11-25T06:29:26;5.50;99.90
15156;DHT22;7678;50.058;8.306;2022-11-25T06:31:54;5.40;99.90
15156;DHT22;7678;50.058;8.306;2022-11-25T06:34:22;5.30;99.90
15156;DHT22;7678;50.058;8.306;2022-11-25T06:36:52;5.40;99.90
15156;DHT22;7678;50.058;8.306;2022-11-25T06:39:20;5.30;99.90
15156;DHT22;7678;50.058;8.306;2022-11-25T06:41:48;5.40;99.90
15156;DHT22;7678;50.058;8.306;2022-11-25T06:44:16;5.40;99.90
15156;DHT22;7678;50.058;8.306;2022-11-25T06:46:44;5.50;99.90
15156;DHT22;7678;50.058;8.306;2022-11-25T06:49:12;5.40;99.90
15156;DHT22;7678;50.058;8.306;2022-11-25T06:51:40;5.40;99.90
15156;DHT22;7678;50.058;8.306;2022-11-25T06:54:09;5.40;99.90
15156;DHT22;7678;50.058;8.306;2022-11-25T06:56:38;5.40;99.90
15156;DHT22;7678;50.058;8.306;2022-11-25T06:59:06;5.40;99.90
15156;DHT22;7678;50.058;8.306;2022-11-25T07:01:34;5.40;99.90
15156;DHT22;7678;50.058;8.306;2022-11-25T07:04:03;5.50;99.90
15156;DHT22;7678;50.058;8.306;2022-11-25T07:06:32;5.50;99.90
15156;DHT22;7678;50.058;8.306;2022-11-25T07:09:00;5.50;99.90
15156;DHT22;7678;50.058;8.306;2022-11-25T07:11:31;5.50;99.90
15156;DHT22;7678;50.058;8.306;2022-11-25T07:14:02;5.50;99.90
15156;DHT22;7678;50.058;8.306;2022-11-25T07:16:31;5.50;99.90
15156;DHT22;7678;50.058;8.306;2022-11-25T07:19:00;5.50;99.90
15156;DHT22;7678;50.058;8.306;2022-11-25T07:21:31;5.60;99.90
15156;DHT22;7678;50.058;8.306;2022-11-25T07:24:01;5.50;99.90
15156;DHT22;7678;50.058;8.306;2022-11-25T07:26:31;5.50;99.90
15156;DHT22;7678;50.058;8.306;2022-11-25T07:29:01;5.60;99.90
15156;DHT22;7678;50.058;8.306;2022-11-25T07:31:31;5.50;99.90
15156;DHT22;7678;50.058;8.306;2022-11-25T07:34:01;5.50;99.90
15156;DHT22;7678;50.058;8.306;2022-11-25T07:36:31;5.50;99.90
15156;DHT22;7678;50.058;8.306;2022-11-25T07:39:01;5.50;99.90
15156;DHT22;7678;50.058;8.306;2022-11-25T07:41:31;5.40;99.90
15156;DHT22;7678;50.058;8.306;2022-11-25T07:44:02;5.40;99.90
15156;DHT22;7678;50.058;8.306;2022-11-25T07:46:34;5.40;99.90
15156;DHT22;7678;50.058;8.306;2022-11-25T07:49:07;5.40;99.90
15156;DHT22;7678;50.058;8.306;2022-11-25T07:51:36;5.40;99.90
15156;DHT22;7678;50.058;8.306;2022-11-25T07:54:06;5.40;99.90
15156;DHT22;7678;50.058;8.306;2022-11-25T07:56:39;5.40;99.90
15156;DHT22;7678;50.058;8.306;2022-11-25T07:59:11;5.40;99.90
15156;DHT22;7678;50.058;8.306;2022-11-25T08:01:41;5.40;99.90
15156;DHT22;7678;50.058;8.306;2022-11-25T08:04:10;5.50;99.90
15156;DHT22;7678;50.058;8.306;2022-11-25T08:06:47;5.50;99.90
15156;DHT22;7678;50.058;8.306;2022-11-25T08:09:20;5.50;99.90
15156;DHT22;7678;50.058;8.306;2022-11-25T08:11:50;5.60;99.90
15156;DHT22;7678;50.058;8.306;2022-11-25T08:14:18;5.60;99.90
15156;DHT22;7678;50.058;8.306;2022-11-25T08:16:46;5.60;99.90
15156;DHT22;7678;50.058;8.306;2022-11-25T08:19:15;5.50;99.90
15156;DHT22;7678;50.058;8.306;2022-11-25T08:21:44;5.60;99.90
15156;DHT22;7678;50.058;8.306;2022-11-25T08:24:15;5.50;99.90
15156;DHT22;7678;50.058;8.306;2022-11-25T08:26:43;5.60;99.90
15156;DHT22;7678;50.058;8.306;2022-11-25T08:29:15;5.60;99.90
15156;DHT22;7678;50.058;8.306;2022-11-25T08:31:44;5.60;99.90
15156;DHT22;7678;50.058;8.306;2022-11-25T08:34:17;5.60;99.90
15156;DHT22;7678;50.058;8.306;2022-11-25T08:36:46;5.70;99.90
15156;DHT22;7678;50.058;8.306;2022-11-25T08:39:15;5.70;99.90
15156;DHT22;7678;50.058;8.306;2022-11-25T08:42:04;5.70;99.90
15156;DHT22;7678;50.058;8.306;2022-11-25T08:44:34;5.70;99.90
15156;DHT22;7678;50.058;8.306;2022-11-25T08:47:03;5.80;99.90
15156;DHT22;7678;50.058;8.306;2022-11-25T08:51:56;5.60;99.90
15156;DHT22;7678;50.058;8.306;2022-11-25T08:54:24;5.60;99.90
15156;DHT22;7678;50.058;8.306;2022-11-25T08:56:53;5.70;99.90
15156;DHT22;7678;50.058;8.306;2022-11-25T08:59:21;5.80;99.90
15156;DHT22;7678;50.058;8.306;2022-11-25T09:01:52;5.70;99.90
15156;DHT22;7678;50.058;8.306;2022-11-25T09:04:21;5.70;99.90
15156;DHT22;7678;50.058;8.306;2022-11-25T09:06:49;5.80;99.90
15156;DHT22;7678;50.058;8.306;2022-11-25T09:09:17;5.90;99.90
15156;DHT22;7678;50.058;8.306;2022-11-25T09:11:45;5.90;99.90
15156;DHT22;7678;50.058;8.306;2022-11-25T09:14:13;5.90;99.90
15156;DHT22;7678;50.058;8.306;2022-11-25T09:16:41;5.70;99.90
15156;DHT22;7678;50.058;8.306;2022-11-25T09:19:14;5.70;99.90
15156;DHT22;7678;50.058;8.306;2022-11-25T09:21:42;5.70;99.90
15156;DHT22;7678;50.058;8.306;2022-11-25T09:24:10;5.70;99.90
15156;DHT22;7678;50.058;8.306;2022-11-25T09:26:38;5.80;99.90
15156;DHT22;7678;50.058;8.306;2022-11-25T09:29:07;5.80;99.90
15156;DHT22;7678;50.058;8.306;2022-11-25T09:31:37;5.90;99.90
15156;DHT22;7678;50.058;8.306;2022-11-25T09:34:05;6.00;99.90
15156;DHT22;7678;50.058;8.306;2022-11-25T09:36:37;6.00;99.90
15156;DHT22;7678;50.058;8.306;2022-11-25T09:39:05;6.20;99.90
15156;DHT22;7678;50.058;8.306;2022-11-25T09:41:45;6.10;99.90
15156;DHT22;7678;50.058;8.306;2022-11-25T09:44:42;6.20;99.90
15156;DHT22;7678;50.058;8.306;2022-11-25T09:47:50;6.10;99.90
15156;DHT22;7678;50.058;8.306;2022-11-25T09:50:34;6.10;99.90
15156;DHT22;7678;50.058;8.306;2022-11-25T09:53:15;6.10;99.90
15156;DHT22;7678;50.058;8.306;2022-11-25T09:55:47;6.10;99.90
15156;DHT22;7678;50.058;8.306;2022-11-25T09:58:24;6.20;99.90
15156;DHT22;7678;50.058;8.306;2022-11-25T10:00:57;6.20;99.90
15156;DHT22;7678;50.058;8.306;2022-11-25T10:03:31;6.20;99.90
15156;DHT22;7678;50.058;8.306;2022-11-25T10:06:04;6.20;99.90
15156;DHT22;7678;50.058;8.306;2022-11-25T10:08:37;6.20;99.90
15156;DHT22;7678;50.058;8.306;2022-11-25T10:11:14;6.30;99.90
15156;DHT22;7678;50.058;8.306;2022-11-25T10:13:49;6.40;99.90
15156;DHT22;7678;50.058;8.306;2022-11-25T10:16:29;6.50;99.90
15156;DHT22;7678;50.058;8.306;2022-11-25T10:19:00;6.60;99.90
15156;DHT22;7678;50.058;8.306;2022-11-25T10:21:28;6.80;99.90
15156;DHT22;7678;50.058;8.306;2022-11-25T10:23:58;6.80;99.90
15156;DHT22;7678;50.058;8.306;2022-11-25T10:26:29;6.80;99.90
15156;DHT22;7678;50.058;8.306;2022-11-25T10:29:15;6.80;99.90
15156;DHT22;7678;50.058;8.306;2022-11-25T10:31:47;6.70;99.90
15156;DHT22;7678;50.058;8.306;2022-11-25T10:34:25;6.90;99.90
15156;DHT22;7678;50.058;8.306;2022-11-25T10:36:57;7.00;99.90
15156;DHT22;7678;50.058;8.306;2022-11-25T10:39:31;7.10;99.90
15156;DHT22;7678;50.058;8.306;2022-11-25T10:42:02;7.10;99.90
15156;DHT22;7678;50.058;8.306;2022-11-25T10:44:34;7.00;99.90
15156;DHT22;7678;50.058;8.306;2022-11-25T10:47:14;7.20;99.90
15156;DHT22;7678;50.058;8.306;2022-11-25T10:49:52;7.20;99.90
15156;DHT22;7678;50.058;8.306;2022-11-25T10:52:22;7.10;99.90
15156;DHT22;7678;50.058;8.306;2022-11-25T10:55:08;6.90;99.90
15156;DHT22;7678;50.058;8.306;2022-11-25T10:57:39;6.90;99.90
15156;DHT22;7678;50.058;8.306;2022-11-25T11:00:23;7.00;99.90
15156;DHT22;7678;50.058;8.306;2022-11-25T11:02:53;7.20;99.90
15156;DHT22;7678;50.058;8.306;2022-11-25T11:05:23;7.30;99.90
15156;DHT22;7678;50.058;8.306;2022-11-25T11:08:18;7.50;99.90
15156;DHT22;7678;50.058;8.306;2022-11-25T11:11:08;7.40;99.90
15156;DHT22;7678;50.058;8.306;2022-11-25T11:13:36;7.50;99.90
15156;DHT22;7678;50.058;8.306;2022-11-25T11:16:20;7.70;99.90
15156;DHT22;7678;50.058;8.306;2022-11-25T11:18:50;7.80;99.90
15156;DHT22;7678;50.058;8.306;2022-11-25T11:21:23;7.80;99.90
15156;DHT22;7678;50.058;8.306;2022-11-25T11:23:53;7.80;99.90
15156;DHT22;7678;50.058;8.306;2022-11-25T11:26:24;8.10;99.90
15156;DHT22;7678;50.058;8.306;2022-11-25T11:28:58;8.30;99.90
15156;DHT22;7678;50.058;8.306;2022-11-25T11:31:31;8.30;99.90
15156;DHT22;7678;50.058;8.306;2022-11-25T11:34:09;8.10;99.90
15156;DHT22;7678;50.058;8.306;2022-11-25T11:36:54;8.20;99.90
15156;DHT22;7678;50.058;8.306;2022-11-25T11:39:39;8.20;99.90
15156;DHT22;7678;50.058;8.306;2022-11-25T11:42:23;8.20;99.90
15156;DHT22;7678;50.058;8.306;2022-11-25T11:45:04;8.30;99.90
15156;DHT22;7678;50.058;8.306;2022-11-25T11:47:48;8.30;99.90
15156;DHT22;7678;50.058;8.306;2022-11-25T11:50:25;8.40;99.90
15156;DHT22;7678;50.058;8.306;2022-11-25T11:52:57;8.40;99.90
15156;DHT22;7678;50.058;8.306;2022-11-25T11:55:42;8.30;99.90
15156;DHT22;7678;50.058;8.306;2022-11-25T11:58:48;8.30;99.90
15156;DHT22;7678;50.058;8.306;2022-11-25T12:01:28;8.40;99.90
15156;DHT22;7678;50.058;8.306;2022-11-25T12:04:02;8.30;99.90
15156;DHT22;7678;50.058;8.306;2022-11-25T12:06:36;8.40;99.90
15156;DHT22;7678;50.058;8.306;2022-11-25T12:09:12;8.30;99.90
15156;DHT22;7678;50.058;8.306;2022-11-25T12:11:44;8.60;99.90
15156;DHT22;7678;50.058;8.306;2022-11-25T12:14:25;8.80;99.90
15156;DHT22;7678;50.058;8.306;2022-11-25T12:17:02;8.90;99.90
15156;DHT22;7678;50.058;8.306;2022-11-25T12:19:38;9.00;99.90
15156;DHT22;7678;50.058;8.306;2022-11-25T12:22:13;8.80;99.90
15156;DHT22;7678;50.058;8.306;2022-11-25T12:24:49;8.80;99.90
15156;DHT22;7678;50.058;8.306;2022-11-25T12:27:21;8.90;99.90
15156;DHT22;7678;50.058;8.306;2022-11-25T12:30:01;8.70;99.90
15156;DHT22;7678;50.058;8.306;2022-11-25T12:32:48;8.40;99.90
15156;DHT22;7678;50.058;8.306;2022-11-25T12:35:30;8.50;99.90
15156;DHT22;7678;50.058;8.306;2022-11-25T12:38:07;8.30;99.90
15156;DHT22;7678;50.058;8.306;2022-11-25T12:40:44;8.40;99.90
15156;DHT22;7678;50.058;8.306;2022-11-25T12:43:23;8.40;99.90
15156;DHT22;7678;50.058;8.306;2022-11-25T12:46:03;8.60;99.90
15156;DHT22;7678;50.058;8.306;2022-11-25T12:48:37;8.70;99.90
15156;DHT22;7678;50.058;8.306;2022-11-25T12:51:14;8.70;99.90
15156;DHT22;7678;50.058;8.306;2022-11-25T12:53:50;8.50;99.90
15156;DHT22;7678;50.058;8.306;2022-11-25T12:56:26;8.50;99.90
15156;DHT22;7678;50.058;8.306;2022-11-25T12:59:11;8.60;99.90
15156;DHT22;7678;50.058;8.306;2022-11-25T13:01:55;8.60;99.90
15156;DHT22;7678;50.058;8.306;2022-11-25T13:04:38;8.70;99.90
15156;DHT22;7678;50.058;8.306;2022-11-25T13:07:23;8.80;99.90
15156;DHT22;7678;50.058;8.306;2022-11-25T13:10:05;8.70;99.90
15156;DHT22;7678;50.058;8.306;2022-11-25T13:12:44;8.70;99.90
15156;DHT22;7678;50.058;8.306;2022-11-25T13:15:23;8.80;99.90
15156;DHT22;7678;50.058;8.306;2022-11-25T13:17:57;8.90;99.90
15156;DHT22;7678;50.058;8.306;2022-11-25T13:20:44;8.90;99.90
15156;DHT22;7678;50.058;8.306;2022-11-25T13:23:23;8.90;99.90
15156;DHT22;7678;50.058;8.306;2022-11-25T13:28:48;8.90;99.90
15156;DHT22;7678;50.058;8.306;2022-11-25T13:31:19;8.90;99.90
15156;DHT22;7678;50.058;8.306;2022-11-25T13:34:01;8.80;99.90
15156;DHT22;7678;50.058;8.306;2022-11-25T13:36:45;8.90;99.90
15156;DHT22;7678;50.058;8.306;2022-11-25T13:39:15;8.90;99.90
15156;DHT22;7678;50.058;8.306;2022-11-25T13:41:48;8.90;99.90
15156;DHT22;7678;50.058;8.306;2022-11-25T13:44:26;8.80;99.90
15156;DHT22;7678;50.058;8.306;2022-11-25T13:46:59;8.90;99.90
15156;DHT22;7678;50.058;8.306;2022-11-25T13:49:50;8.80;99.90
15156;DHT22;7678;50.058;8.306;2022-11-25T13:52:46;8.80;99.90
15156;DHT22;7678;50.058;8.306;2022-11-25T13:55:31;9.00;99.90
15156;DHT22;7678;50.058;8.306;2022-11-25T13:58:12;9.10;99.90
15156;DHT22;7678;50.058;8.306;2022-11-25T14:01:09;9.10;99.90
15156;DHT22;7678;50.058;8.306;2022-11-25T14:03:56;9.10;99.90
15156;DHT22;7678;50.058;8.306;2022-11-25T14:06:54;9.20;99.90
15156;DHT22;7678;50.058;8.306;2022-11-25T14:09:45;9.20;99.90
15156;DHT22;7678;50.058;8.306;2022-11-25T14:16:03;9.20;99.90
15156;DHT22;7678;50.058;8.306;2022-11-25T14:18:46;9.10;99.90
15156;DHT22;7678;50.058;8.306;2022-11-25T14:21:51;9.00;99.90
15156;DHT22;7678;50.058;8.306;2022-11-25T14:24:28;8.90;99.90
15156;DHT22;7678;50.058;8.306;2022-11-25T14:26:57;8.80;99.90
15156;DHT22;7678;50.058;8.306;2022-11-25T14:29:35;8.70;99.90
15156;DHT22;7678;50.058;8.306;2022-11-25T14:32:09;8.70;99.90
15156;DHT22;7678;50.058;8.306;2022-11-25T14:34:42;8.80;99.90
15156;DHT22;7678;50.058;8.306;2022-11-25T14:37:16;8.90;99.90
15156;DHT22;7678;50.058;8.306;2022-11-25T14:39:51;8.90;99.90
15156;DHT22;7678;50.058;8.306;2022-11-25T14:42:22;9.00;99.90
15156;DHT22;7678;50.058;8.306;2022-11-25T14:44:52;9.00;99.90
15156;DHT22;7678;50.058;8.306;2022-11-25T14:47:22;9.10;99.90
15156;DHT22;7678;50.058;8.306;2022-11-25T14:49:52;9.10;99.90
15156;DHT22;7678;50.058;8.306;2022-11-25T14:52:42;9.00;99.90
15156;DHT22;7678;50.058;8.306;2022-11-25T14:55:22;9.00;99.90
15156;DHT22;7678;50.058;8.306;2022-11-25T14:57:51;9.00;99.90
15156;DHT22;7678;50.058;8.306;2022-11-25T15:00:20;8.90;99.90
15156;DHT22;7678;50.058;8.306;2022-11-25T15:02:53;8.90;99.90
15156;DHT22;7678;50.058;8.306;2022-11-25T15:05:23;8.90;99.90
15156;DHT22;7678;50.058;8.306;2022-11-25T15:07:58;8.80;99.90
15156;DHT22;7678;50.058;8.306;2022-11-25T15:10:32;8.80;99.90
15156;DHT22;7678;50.058;8.306;2022-11-25T15:13:07;8.70;99.90
15156;DHT22;7678;50.058;8.306;2022-11-25T15:15:36;8.60;99.90
15156;DHT22;7678;50.058;8.306;2022-11-25T15:18:05;8.60;99.90
15156;DHT22;7678;50.058;8.306;2022-11-25T15:20:34;8.60;99.90
15156;DHT22;7678;50.058;8.306;2022-11-25T15:23:03;8.40;99.90
15156;DHT22;7678;50.058;8.306;2022-11-25T15:25:32;8.30;99.90
15156;DHT22;7678;50.058;8.306;2022-11-25T15:28:00;8.30;99.90
15156;DHT22;7678;50.058;8.306;2022-11-25T15:30:28;8.20;99.90
15156;DHT22;7678;50.058;8.306;2022-11-25T15:32:56;8.20;99.90
15156;DHT22;7678;50.058;8.306;2022-11-25T15:35:25;8.20;99.90
15156;DHT22;7678;50.058;8.306;2022-11-25T15:37:54;8.10;99.90
15156;DHT22;7678;50.058;8.306;2022-11-25T15:40:38;8.10;99.90
15156;DHT22;7678;50.058;8.306;2022-11-25T15:43:21;8.00;99.90
15156;DHT22;7678;50.058;8.306;2022-11-25T15:45:53;8.00;99.90
15156;DHT22;7678;50.058;8.306;2022-11-25T15:48:26;7.90;99.90
15156;DHT22;7678;50.058;8.306;2022-11-25T15:51:01;7.90;99.90
15156;DHT22;7678;50.058;8.306;2022-11-25T15:53:31;7.80;99.90
15156;DHT22;7678;50.058;8.306;2022-11-25T15:56:05;7.90;99.90
15156;DHT22;7678;50.058;8.306;2022-11-25T15:58:34;7.90;99.90
15156;DHT22;7678;50.058;8.306;2022-11-25T16:01:03;7.90;99.90
15156;DHT22;7678;50.058;8.306;2022-11-25T16:03:32;7.90;99.90
15156;DHT22;7678;50.058;8.306;2022-11-25T16:06:16;7.90;99.90
15156;DHT22;7678;50.058;8.306;2022-11-25T16:08:51;7.80;99.90
15156;DHT22;7678;50.058;8.306;2022-11-25T16:11:22;7.70;99.90
15156;DHT22;7678;50.058;8.306;2022-11-25T16:13:52;7.70;99.90
15156;DHT22;7678;50.058;8.306;2022-11-25T16:16:26;7.60;99.90
15156;DHT22;7678;50.058;8.306;2022-11-25T16:19:18;7.40;99.90
15156;DHT22;7678;50.058;8.306;2022-11-25T16:21:52;7.40;99.90
15156;DHT22;7678;50.058;8.306;2022-11-25T16:24:34;7.30;99.90
15156;DHT22;7678;50.058;8.306;2022-11-25T16:27:10;7.30;99.90
15156;DHT22;7678;50.058;8.306;2022-11-25T16:29:47;7.30;99.90
15156;DHT22;7678;50.058;8.306;2022-11-25T16:32:17;7.30;99.90
15156;DHT22;7678;50.058;8.306;2022-11-25T16:34:45;7.20;99.90
15156;DHT22;7678;50.058;8.306;2022-11-25T16:37:13;7.40;99.90
15156;DHT22;7678;50.058;8.306;2022-11-25T16:39:43;7.40;99.90
15156;DHT22;7678;50.058;8.306;2022-11-25T16:42:17;7.30;99.90
15156;DHT22;7678;50.058;8.306;2022-11-25T16:44:47;7.40;99.90
15156;DHT22;7678;50.058;8.306;2022-11-25T16:47:16;7.40;99.90